Grizzly Air Cargo 5119


PAJN
Juneau International Airport
Juneau, Alaska, US
PASI
Sitka Rocky Gutierrez Airport
Sitka, Alaska, US

Activity Log

Date Flight Route Aircraft Duration
07/26/2019 GRZ513 RODMN1 RODMN B722 0h 37m
06/30/2019 GRZ513 RODMN1 RODMN B722 1h 01m
03/21/2019 GRZ513 MARMN HOODS B722 0h 30m

Route Details

Aircraft Information
Primary: Boeing 727-200F
Backup: Boeing 737-800BCF
Route Data
Distance: 97nm
Sched. Duration: 0h 35m
Avg. Duration: 0h 56m (+21m)
Times Flown: 3
Recm'd Route: RODMN1 RODMN
Planned Altitude: 16,000ft
Origin Wx: PAJN 282044Z 12012KT 10SM -RA FEW011 BKN031 OVC045 04/02 A2975 RMK AO2 P0000 T00390017
Dest. Wx: PASI 282020Z 00000KT 8SM -RA OVC016 03/02 A2980 RMK AO2 UPB1957E03RAB15 P0001 T00280022
Notes:

Financial History
Total Freight: 103,422lbs
Average Load: 34,474lbs/flt
Fuel Used: 14,406lbs
Avg. Fuel Used: 4,802lbs/flt
Fuel Expense: $15,414
Avg. Fuel Expense: $5,138
Avg. Fuel Cost: $1.07/lbs
Total Gross Income: $146,859
Pilot Pay: $687
Total Expenses: $16,017
Total Revenue: $114,918
Average Revenue: $48,953.08